Time;durP1;ratioP1;P1;durP2;ratioP2;P2;SDS_P1;SDS_P2;PMS_P1;PMS_P2;Temp;Humidity;BMP_temperature;BMP_pressure;BME280_temperature;BME280_humidity;BME280_pressure;Samples;Min_cycle;Max_cycle;Signal;HPM_P1;HPM_P2
2021/06/13 00:00:01;;;;;;;6.65;6.03;;;18.90;99.90;;;;;;5034409;28;20209;-45
2021/06/13 00:02:30;;;;;;;6.40;5.80;;;18.90;99.90;;;;;;5034333;28;20209;-46
2021/06/13 00:04:57;;;;;;;6.85;6.32;;;18.90;99.90;;;;;;5034112;28;20232;-47
2021/06/13 00:07:25;;;;;;;6.90;6.22;;;18.80;99.90;;;;;;5033954;28;20745;-45
2021/06/13 00:09:52;;;;;;;6.82;6.22;;;18.80;99.90;;;;;;5034110;28;20303;-44
2021/06/13 00:12:20;;;;;;;6.72;5.95;;;18.80;99.90;;;;;;5033989;28;20259;-45
2021/06/13 00:14:47;;;;;;;5.82;5.32;;;18.80;99.90;;;;;;5034133;28;20249;-44
2021/06/13 00:17:17;;;;;;;6.25;5.75;;;18.80;99.90;;;;;;5033964;28;20217;-49
2021/06/13 00:19:46;;;;;;;7.43;6.72;;;18.70;99.90;;;;;;5033879;28;20204;-44
2021/06/13 00:22:13;;;;;;;6.70;5.93;;;18.70;99.90;;;;;;5033900;28;20237;-45
2021/06/13 00:24:40;;;;;;;6.00;5.45;;;18.70;99.90;;;;;;5034063;28;20233;-45
2021/06/13 00:27:08;;;;;;;6.93;6.32;;;18.70;99.90;;;;;;5032854;28;20212;-45
2021/06/13 00:29:36;;;;;;;7.20;6.43;;;18.70;99.90;;;;;;5034020;28;20211;-47
2021/06/13 00:32:03;;;;;;;7.00;6.10;;;18.70;99.90;;;;;;5033882;28;20209;-47
2021/06/13 00:34:31;;;;;;;8.65;7.00;;;18.70;99.90;;;;;;5033711;28;20204;-43
2021/06/13 00:37:00;;;;;;;5.90;5.40;;;18.70;99.90;;;;;;5033882;28;20334;-46
2021/06/13 00:39:27;;;;;;;7.20;6.50;;;18.70;99.90;;;;;;5033746;28;20637;-45
2021/06/13 00:41:55;;;;;;;7.18;6.55;;;18.70;99.90;;;;;;5033707;28;20235;-47
2021/06/13 00:44:23;;;;;;;7.90;7.10;;;18.80;99.90;;;;;;5033464;28;20580;-47
2021/06/13 00:46:51;;;;;;;7.80;6.93;;;18.70;99.90;;;;;;5033660;28;20589;-45
2021/06/13 00:49:18;;;;;;;6.78;6.18;;;18.60;99.90;;;;;;5033484;28;20695;-45
2021/06/13 00:51:47;;;;;;;7.53;6.65;;;18.60;99.90;;;;;;5033462;28;20244;-44
2021/06/13 00:54:16;;;;;;;9.43;6.68;;;18.60;99.90;;;;;;5033320;28;20647;-48
2021/06/13 00:56:43;;;;;;;7.85;7.15;;;18.60;99.90;;;;;;5033407;28;20215;-45
2021/06/13 00:59:11;;;;;;;7.80;7.07;;;18.60;99.90;;;;;;5033283;28;20308;-45
2021/06/13 01:01:39;;;;;;;8.48;7.57;;;18.60;99.90;;;;;;5033113;28;20319;-45
2021/06/13 01:04:07;;;;;;;7.78;7.07;;;18.50;99.90;;;;;;5033304;28;20232;-45
2021/06/13 01:06:51;;;;;;;8.13;7.43;;;18.50;99.80;;;;;;5033050;28;20375;-47
2021/06/13 01:09:25;;;;;;;8.77;7.97;;;18.50;99.80;;;;;;5033076;28;20215;-44
2021/06/13 01:11:56;;;;;;;8.07;7.28;;;18.50;99.80;;;;;;5033199;28;20302;-49
2021/06/13 01:14:33;;;;;;;10.32;7.55;;;18.50;99.80;;;;;;5032993;28;20308;-46
2021/06/13 01:17:07;;;;;;;7.50;6.80;;;18.50;99.80;;;;;;5032895;28;20240;-45
2021/06/13 01:19:46;;;;;;;7.88;7.28;;;18.50;99.90;;;;;;5033172;28;20576;-45
2021/06/13 01:22:37;;;;;;;9.13;7.70;;;18.40;99.90;;;;;;5032819;28;20286;-43
2021/06/13 01:25:16;;;;;;;8.23;7.07;;;18.50;99.90;;;;;;5032738;28;20542;-45
2021/06/13 01:28:05;;;;;;;10.07;7.35;;;18.40;99.90;;;;;;5033060;28;20295;-43
2021/06/13 01:30:35;;;;;;;7.45;6.80;;;18.40;99.90;;;;;;5032641;28;20243;-47
2021/06/13 01:33:09;;;;;;;8.38;6.93;;;18.40;99.90;;;;;;5032690;28;20299;-44
2021/06/13 01:35:38;;;;;;;7.93;7.18;;;18.30;99.90;;;;;;5032506;28;20287;-45
2021/06/13 01:38:07;;;;;;;9.88;7.63;;;18.30;99.80;;;;;;5032325;28;20238;-46
2021/06/13 01:40:36;;;;;;;10.02;7.03;;;18.30;99.90;;;;;;5032652;28;20218;-43
2021/06/13 01:43:05;;;;;;;7.97;7.28;;;18.30;99.90;;;;;;5032584;28;20311;-45
2021/06/13 01:45:38;;;;;;;9.73;7.13;;;18.30;99.90;;;;;;5032311;28;20225;-45
2021/06/13 01:48:09;;;;;;;7.95;7.25;;;18.20;99.90;;;;;;5032422;28;20682;-44
2021/06/13 01:50:38;;;;;;;7.65;6.95;;;18.20;99.90;;;;;;5032365;28;20664;-44
2021/06/13 01:53:09;;;;;;;8.85;7.95;;;18.20;99.90;;;;;;5032471;28;20387;-44
2021/06/13 01:55:37;;;;;;;9.02;7.00;;;18.20;99.90;;;;;;5032295;28;20239;-43
2021/06/13 01:58:08;;;;;;;8.27;7.43;;;18.10;99.90;;;;;;5032318;28;20308;-44
2021/06/13 02:00:38;;;;;;;8.23;6.95;;;18.10;99.90;;;;;;5032220;28;20255;-43
2021/06/13 02:03:06;;;;;;;7.60;6.90;;;18.10;99.90;;;;;;5032282;28;20291;-44
2021/06/13 02:05:36;;;;;;;7.63;6.90;;;18.10;99.90;;;;;;5032043;28;20233;-47
2021/06/13 02:08:04;;;;;;;7.15;6.45;;;18.10;99.90;;;;;;5031875;28;20208;-44
2021/06/13 02:10:33;;;;;;;7.38;6.40;;;18.10;99.90;;;;;;5031922;28;20238;-44
2021/06/13 02:13:01;;;;;;;6.68;6.07;;;18.10;99.90;;;;;;5031882;28;20243;-43
2021/06/13 02:15:29;;;;;;;9.30;6.63;;;18.10;99.90;;;;;;5032073;28;20231;-44
2021/06/13 02:17:59;;;;;;;7.90;6.75;;;18.00;99.80;;;;;;5032156;28;20208;-48
2021/06/13 02:20:29;;;;;;;7.68;6.43;;;18.00;99.70;;;;;;5031820;28;20299;-49
2021/06/13 02:22:58;;;;;;;7.28;6.10;;;18.00;99.70;;;;;;5032116;28;20213;-47
2021/06/13 02:25:26;;;;;;;9.02;6.50;;;17.90;99.60;;;;;;5031856;28;20229;-43
2021/06/13 02:27:58;;;;;;;8.55;6.93;;;17.90;99.60;;;;;;5031835;28;20311;-44
2021/06/13 02:30:28;;;;;;;6.85;6.35;;;17.90;99.50;;;;;;5031840;28;20216;-45
2021/06/13 02:32:58;;;;;;;7.25;6.40;;;17.80;99.40;;;;;;5032022;28;20219;-43
2021/06/13 02:35:27;;;;;;;8.00;7.18;;;17.80;99.50;;;;;;5031795;28;20683;-46
2021/06/13 02:37:56;;;;;;;6.45;5.85;;;17.80;99.50;;;;;;5031807;28;20244;-45
2021/06/13 02:40:25;;;;;;;8.20;6.63;;;17.80;99.40;;;;;;5031889;28;20231;-48
2021/06/13 02:42:53;;;;;;;8.38;5.50;;;17.70;99.40;;;;;;5032085;28;20212;-45
2021/06/13 02:45:21;;;;;;;8.65;6.35;;;17.70;99.50;;;;;;5031833;28;20231;-44
2021/06/13 02:47:50;;;;;;;8.77;6.22;;;17.60;99.50;;;;;;5031655;28;20304;-47
2021/06/13 02:50:20;;;;;;;7.32;6.35;;;17.50;99.60;;;;;;5033810;28;20259;-45
2021/06/13 02:52:53;;;;;;;7.88;6.13;;;17.50;99.60;;;;;;5035798;28;20656;-44
2021/06/13 02:55:23;;;;;;;7.72;5.97;;;17.40;99.70;;;;;;5035791;28;20223;-47
2021/06/13 02:57:55;;;;;;;10.77;6.50;;;17.30;99.80;;;;;;5035904;28;20212;-44
2021/06/13 03:00:25;;;;;;;7.85;6.10;;;17.20;99.90;;;;;;5035724;28;20212;-44
2021/06/13 03:02:56;;;;;;;7.25;6.55;;;17.10;99.90;;;;;;5035433;28;20640;-43
2021/06/13 03:05:26;;;;;;;7.88;6.40;;;17.10;99.90;;;;;;5035707;28;20358;-46
2021/06/13 03:07:55;;;;;;;8.57;6.28;;;17.00;99.90;;;;;;5035871;28;20212;-44
2021/06/13 03:10:23;;;;;;;6.47;5.88;;;17.00;99.90;;;;;;5035470;28;20231;-44
2021/06/13 03:12:54;;;;;;;6.45;5.75;;;17.00;99.90;;;;;;5035484;28;20236;-43
2021/06/13 03:15:22;;;;;;;7.75;6.55;;;16.90;99.90;;;;;;5035423;28;20711;-44
2021/06/13 03:17:51;;;;;;;8.82;6.90;;;16.90;99.90;;;;;;5035460;28;20304;-44
2021/06/13 03:20:19;;;;;;;6.72;6.10;;;16.90;99.90;;;;;;5035098;28;20219;-39
2021/06/13 03:22:48;;;;;;;8.25;6.93;;;16.80;99.90;;;;;;5035328;28;20303;-43
2021/06/13 03:25:18;;;;;;;8.70;6.65;;;16.80;99.90;;;;;;5035136;28;20280;-42
2021/06/13 03:27:46;;;;;;;7.40;6.68;;;16.80;99.90;;;;;;5035071;28;20682;-41
2021/06/13 03:30:14;;;;;;;8.98;5.95;;;16.70;99.90;;;;;;5034945;28;20213;-43
2021/06/13 03:32:42;;;;;;;7.22;6.53;;;16.70;99.90;;;;;;5035285;28;20647;-43
2021/06/13 03:35:11;;;;;;;9.10;6.80;;;16.70;99.90;;;;;;5035205;28;20215;-45
2021/06/13 03:37:41;;;;;;;7.22;6.53;;;16.70;99.90;;;;;;5035085;28;20683;-44
2021/06/13 03:40:11;;;;;;;7.05;6.35;;;16.60;99.90;;;;;;5035300;28;20209;-43
2021/06/13 03:42:41;;;;;;;8.90;6.70;;;16.60;99.90;;;;;;5034782;28;20255;-44
2021/06/13 03:45:10;;;;;;;7.82;7.03;;;16.50;99.90;;;;;;5034939;28;20300;-43
2021/06/13 03:47:39;;;;;;;7.15;6.45;;;16.50;99.90;;;;;;5034821;28;20224;-43
2021/06/13 03:50:11;;;;;;;8.32;7.22;;;16.50;99.90;;;;;;5034793;28;20217;-44
2021/06/13 03:52:39;;;;;;;9.20;8.25;;;16.50;99.90;;;;;;5034658;28;20212;-45
2021/06/13 03:55:12;;;;;;;8.10;6.82;;;16.50;99.90;;;;;;5047341;28;20303;-46
2021/06/13 03:57:43;;;;;;;9.52;7.35;;;16.50;99.90;;;;;;5034895;28;20570;-44
2021/06/13 04:00:12;;;;;;;8.88;6.97;;;16.50;99.90;;;;;;5034287;28;20304;-45
2021/06/13 04:02:43;;;;;;;7.50;6.70;;;16.40;99.90;;;;;;5034434;28;20284;-41
2021/06/13 04:05:13;;;;;;;8.50;7.30;;;16.50;99.90;;;;;;5034318;28;20322;-42
2021/06/13 04:07:42;;;;;;;9.55;7.45;;;16.50;99.90;;;;;;5033999;28;20744;-43
2021/06/13 04:10:14;;;;;;;7.55;6.85;;;16.40;99.90;;;;;;5034615;28;20632;-38
2021/06/13 04:12:42;;;;;;;7.75;7.05;;;16.40;99.90;;;;;;5034423;28;20631;-41
2021/06/13 04:15:11;;;;;;;10.43;7.63;;;16.50;99.90;;;;;;5034246;28;20339;-42
2021/06/13 04:17:40;;;;;;;7.68;6.97;;;16.50;99.90;;;;;;5033995;28;20297;-41
2021/06/13 04:20:11;;;;;;;8.88;6.68;;;16.50;99.90;;;;;;5033989;28;20286;-41
2021/06/13 04:22:40;;;;;;;9.18;7.72;;;16.60;99.90;;;;;;5034268;28;20315;-41
2021/06/13 04:25:10;;;;;;;9.13;7.10;;;16.60;99.90;;;;;;5034241;28;20503;-42
2021/06/13 04:27:41;;;;;;;10.63;8.30;;;16.70;99.90;;;;;;5034090;28;20251;-41
2021/06/13 04:30:10;;;;;;;7.95;7.07;;;16.70;99.90;;;;;;5033362;28;20232;-41
2021/06/13 04:32:38;;;;;;;7.47;6.78;;;16.60;99.90;;;;;;5033747;28;20359;-40
2021/06/13 04:35:07;;;;;;;7.95;7.18;;;16.60;99.90;;;;;;5034264;28;20299;-41
2021/06/13 04:37:35;;;;;;;9.27;7.88;;;16.60;99.90;;;;;;5034079;28;20611;-41
2021/06/13 04:40:03;;;;;;;9.40;8.30;;;16.70;99.90;;;;;;5033996;28;20274;-42
2021/06/13 04:42:31;;;;;;;8.50;7.70;;;16.70;99.90;;;;;;5033716;28;20316;-41
2021/06/13 04:45:06;;;;;;;10.93;8.02;;;16.80;99.90;;;;;;5033967;28;20612;-41
2021/06/13 04:47:34;;;;;;;7.97;7.18;;;16.80;99.90;;;;;;5034031;28;20238;-42
2021/06/13 04:50:04;;;;;;;8.63;7.20;;;16.90;99.90;;;;;;5033791;28;20271;-41
2021/06/13 04:52:33;;;;;;;8.40;7.45;;;16.90;99.90;;;;;;5033764;28;20566;-41
2021/06/13 04:55:11;;;;;;;13.05;7.63;;;17.00;99.90;;;;;;5033566;28;20205;-42
2021/06/13 04:58:02;;;;;;;8.73;7.90;;;17.00;99.90;;;;;;5033447;28;20299;-46
2021/06/13 05:00:31;;;;;;;8.35;7.35;;;17.10;99.90;;;;;;5026254;28;20214;-42
2021/06/13 05:03:00;;;;;;;8.32;7.40;;;17.10;99.90;;;;;;5033337;28;20208;-43
2021/06/13 05:05:29;;;;;;;8.38;7.38;;;17.20;99.90;;;;;;5033341;28;20695;-43
2021/06/13 05:07:57;;;;;;;12.45;7.53;;;17.40;99.90;;;;;;5033025;28;20315;-43
2021/06/13 05:10:26;;;;;;;9.90;8.10;;;17.50;99.90;;;;;;5033366;28;20304;-43
2021/06/13 05:12:54;;;;;;;8.32;7.50;;;17.50;99.90;;;;;;5032731;28;20375;-41
2021/06/13 05:15:23;;;;;;;10.95;7.43;;;17.50;99.90;;;;;;5033281;28;20358;-41
2021/06/13 05:17:53;;;;;;;7.78;7.05;;;17.50;99.90;;;;;;5033042;28;20230;-43
2021/06/13 05:20:21;;;;;;;7.82;7.07;;;17.50;99.90;;;;;;5032972;28;20319;-42
2021/06/13 05:22:51;;;;;;;7.13;6.53;;;17.40;99.90;;;;;;5033074;28;20244;-42
2021/06/13 05:25:19;;;;;;;7.70;6.95;;;17.50;99.90;;;;;;5033325;28;20213;-41
2021/06/13 05:27:47;;;;;;;8.80;6.38;;;17.50;99.90;;;;;;5032894;28;20745;-42
2021/06/13 05:30:15;;;;;;;9.23;6.97;;;17.70;99.90;;;;;;5033362;28;20346;-42
2021/06/13 05:32:43;;;;;;;8.15;6.40;;;17.80;99.90;;;;;;5032751;28;20244;-41
2021/06/13 05:35:13;;;;;;;7.10;5.95;;;18.00;99.90;;;;;;5032710;28;20295;-44
2021/06/13 05:37:41;;;;;;;7.20;6.25;;;18.10;99.90;;;;;;5032944;28;20253;-42
2021/06/13 05:40:10;;;;;;;8.32;5.75;;;18.30;99.60;;;;;;5032534;28;20707;-42
2021/06/13 05:42:38;;;;;;;9.30;6.40;;;18.50;99.30;;;;;;5032779;28;20205;-43
2021/06/13 05:45:09;;;;;;;8.32;6.28;;;18.60;99.00;;;;;;5032565;28;20401;-41
2021/06/13 05:47:37;;;;;;;6.57;5.30;;;18.60;98.80;;;;;;5032340;28;20656;-42
2021/06/13 05:50:08;;;;;;;6.00;5.32;;;18.60;98.70;;;;;;5032260;28;20730;-40
2021/06/13 05:52:38;;;;;;;7.38;5.07;;;18.60;98.60;;;;;;5032315;28;20300;-42
2021/06/13 05:55:08;;;;;;;8.88;5.63;;;18.70;98.70;;;;;;5032364;28;20219;-42
2021/06/13 05:57:36;;;;;;;7.15;5.53;;;18.70;98.20;;;;;;5031848;28;20291;-45
2021/06/13 06:00:07;;;;;;;7.50;5.68;;;18.70;98.10;;;;;;5031934;28;20303;-43
2021/06/13 06:02:35;;;;;;;8.00;5.63;;;18.70;98.00;;;;;;5032186;28;20295;-43
2021/06/13 06:05:03;;;;;;;9.02;6.20;;;18.50;98.10;;;;;;5032188;28;20208;-45
2021/06/13 06:07:31;;;;;;;5.78;5.15;;;18.50;98.10;;;;;;5032009;28;20311;-44
2021/06/13 06:10:01;;;;;;;7.10;5.25;;;18.50;97.90;;;;;;5032043;28;20208;-40
2021/06/13 06:12:29;;;;;;;9.25;4.85;;;18.50;97.90;;;;;;5031892;28;20648;-40
2021/06/13 06:14:58;;;;;;;8.23;5.28;;;18.50;97.80;;;;;;5031749;28;20664;-41
2021/06/13 06:17:26;;;;;;;10.90;5.75;;;18.50;97.60;;;;;;5031885;28;20306;-42
2021/06/13 06:19:54;;;;;;;5.65;5.05;;;18.50;97.50;;;;;;5031871;28;20209;-42
2021/06/13 06:22:22;;;;;;;10.75;5.28;;;18.40;97.60;;;;;;5031937;28;20335;-44
2021/06/13 06:24:49;;;;;;;7.53;4.85;;;18.40;97.70;;;;;;5030922;28;20251;-41
2021/06/13 06:27:19;;;;;;;8.55;5.65;;;18.50;97.60;;;;;;5031630;28;20312;-42
2021/06/13 06:29:47;;;;;;;5.95;5.38;;;18.60;97.40;;;;;;5031660;28;20686;-45
2021/06/13 06:32:19;;;;;;;5.45;4.95;;;18.70;97.30;;;;;;5031626;28;20213;-42
2021/06/13 06:34:47;;;;;;;5.70;5.05;;;18.70;97.20;;;;;;5031745;28;20311;-47
2021/06/13 06:37:15;;;;;;;4.75;4.32;;;18.80;96.90;;;;;;5031435;28;20208;-42
2021/06/13 06:39:43;;;;;;;7.90;5.80;;;18.90;96.60;;;;;;5030972;28;20208;-45
2021/06/13 06:42:11;;;;;;;7.13;5.47;;;18.90;96.50;;;;;;5031207;28;20574;-42
2021/06/13 06:44:40;;;;;;;6.30;4.68;;;18.90;96.60;;;;;;5031259;28;20214;-42
2021/06/13 06:47:08;;;;;;;6.97;4.93;;;19.00;96.40;;;;;;5031264;28;20296;-43
2021/06/13 06:49:36;;;;;;;9.10;5.20;;;19.00;96.20;;;;;;5030701;28;20213;-40
2021/06/13 06:52:06;;;;;;;7.10;5.20;;;19.10;96.10;;;;;;5031022;28;20672;-42
2021/06/13 06:54:34;;;;;;;11.32;5.25;;;19.10;96.00;;;;;;5031344;28;20208;-44
2021/06/13 06:57:02;;;;;;;5.43;4.88;;;19.20;96.00;;;;;;5031382;28;20521;-42
2021/06/13 06:59:30;;;;;;;5.82;4.80;;;19.30;96.10;;;;;;5031223;28;20298;-44
2021/06/13 07:01:59;;;;;;;8.07;4.70;;;19.30;95.80;;;;;;5031042;28;20211;-47
2021/06/13 07:04:27;;;;;;;5.82;4.47;;;19.30;95.70;;;;;;5031010;28;20238;-43
2021/06/13 07:06:55;;;;;;;5.15;4.75;;;19.40;96.00;;;;;;5030918;28;20212;-43
2021/06/13 07:09:23;;;;;;;7.28;5.55;;;19.40;95.60;;;;;;5031137;28;20239;-41
2021/06/13 07:11:51;;;;;;;5.50;5.00;;;19.40;95.70;;;;;;5030966;28;20251;-42
2021/06/13 07:14:19;;;;;;;8.63;4.93;;;19.30;95.60;;;;;;5031318;28;20217;-42
2021/06/13 07:16:47;;;;;;;6.55;5.80;;;19.20;95.70;;;;;;5030961;28;20299;-41
2021/06/13 07:19:17;;;;;;;8.25;5.07;;;19.10;95.70;;;;;;5030951;28;20217;-42
2021/06/13 07:21:45;;;;;;;7.10;5.25;;;19.10;95.70;;;;;;5031163;28;20661;-42
2021/06/13 07:24:13;;;;;;;7.07;4.97;;;19.20;95.70;;;;;;5031155;28;20205;-41
2021/06/13 07:26:41;;;;;;;5.60;5.00;;;19.30;95.60;;;;;;5031224;28;20251;-42
2021/06/13 07:29:09;;;;;;;7.60;6.57;;;19.30;95.50;;;;;;5031037;28;20324;-44
2021/06/13 07:31:37;;;;;;;5.63;5.10;;;19.40;95.50;;;;;;5030929;28;20213;-42
2021/06/13 07:34:05;;;;;;;6.60;4.95;;;19.40;95.40;;;;;;5030892;28;20667;-45
2021/06/13 07:36:36;;;;;;;6.13;4.97;;;19.40;95.40;;;;;;5033620;28;20292;-45
2021/06/13 07:39:05;;;;;;;7.10;5.00;;;19.50;95.40;;;;;;5034573;28;20295;-42
2021/06/13 07:41:33;;;;;;;6.00;5.40;;;19.50;95.20;;;;;;5034807;28;20235;-41
2021/06/13 07:44:01;;;;;;;5.40;4.90;;;19.50;95.20;;;;;;5034532;28;20732;-43
2021/06/13 07:46:29;;;;;;;5.70;5.10;;;19.60;95.10;;;;;;5034581;28;20213;-42
2021/06/13 07:48:57;;;;;;;4.93;4.43;;;19.70;94.90;;;;;;5034565;28;20232;-46
2021/06/13 07:51:25;;;;;;;8.25;5.45;;;19.70;94.70;;;;;;5034641;28;20307;-42
2021/06/13 07:53:55;;;;;;;6.95;5.13;;;19.70;94.50;;;;;;5034320;28;20255;-42
2021/06/13 07:56:22;;;;;;;9.43;5.75;;;19.80;94.50;;;;;;5034079;28;20558;-43
2021/06/13 07:58:50;;;;;;;8.13;5.00;;;19.80;94.50;;;;;;5034302;28;20200;-46
2021/06/13 08:01:18;;;;;;;7.32;5.60;;;19.80;94.40;;;;;;5034096;28;20632;-43
2021/06/13 08:03:46;;;;;;;7.75;4.88;;;19.80;94.30;;;;;;5034031;28;20295;-44
2021/06/13 08:06:14;;;;;;;6.70;5.28;;;20.00;94.20;;;;;;5034032;28;20291;-45
2021/06/13 08:08:42;;;;;;;5.75;4.75;;;20.20;94.00;;;;;;5033572;28;20327;-44
2021/06/13 08:11:11;;;;;;;7.47;5.65;;;20.20;93.80;;;;;;5033745;28;20645;-44
2021/06/13 08:13:39;;;;;;;6.30;5.70;;;20.20;93.90;;;;;;5033597;28;20602;-42
2021/06/13 08:16:08;;;;;;;5.85;5.10;;;20.30;93.70;;;;;;5033614;28;20727;-48
2021/06/13 08:18:36;;;;;;;8.52;5.00;;;20.30;93.90;;;;;;5033908;28;20205;-44
2021/06/13 08:21:05;;;;;;;5.47;4.97;;;20.50;93.80;;;;;;5033758;28;20298;-46
2021/06/13 08:23:33;;;;;;;5.93;4.75;;;20.70;93.40;;;;;;5033635;28;20248;-46
2021/06/13 08:26:02;;;;;;;7.93;5.18;;;20.80;93.10;;;;;;5033148;28;20287;-44
2021/06/13 08:28:31;;;;;;;5.97;5.43;;;20.80;93.00;;;;;;5033393;28;20243;-43
2021/06/13 08:30:59;;;;;;;8.85;5.47;;;20.70;92.90;;;;;;5033698;28;20376;-42
2021/06/13 08:33:27;;;;;;;8.02;5.38;;;20.70;93.00;;;;;;5033542;28;20217;-49
2021/06/13 08:35:55;;;;;;;5.75;4.60;;;20.60;93.30;;;;;;5033319;28;20209;-43
2021/06/13 08:38:24;;;;;;;6.93;5.35;;;20.60;93.00;;;;;;5033294;28;20239;-42
2021/06/13 08:40:52;;;;;;;6.47;4.55;;;20.50;93.10;;;;;;5033386;28;20636;-45
2021/06/13 08:43:21;;;;;;;6.03;5.25;;;20.50;93.00;;;;;;5033003;28;20316;-44
2021/06/13 08:45:55;;;;;;;6.05;4.00;;;20.50;92.90;;;;;;5033542;28;20208;-45
2021/06/13 08:48:27;;;;;;;4.78;4.38;;;20.50;93.00;;;;;;5032343;28;20755;-42
2021/06/13 08:50:56;;;;;;;5.68;4.25;;;20.70;92.90;;;;;;5033030;28;20213;-42
2021/06/13 08:53:24;;;;;;;6.35;4.25;;;20.80;92.70;;;;;;5032950;28;20215;-43
2021/06/13 08:55:52;;;;;;;5.68;5.18;;;20.80;92.60;;;;;;5033292;28;20295;-43
2021/06/13 08:58:21;;;;;;;10.55;4.68;;;20.90;92.60;;;;;;5032911;28;20240;-42
2021/06/13 09:00:50;;;;;;;6.68;4.75;;;21.10;92.40;;;;;;5032883;28;20247;-46
2021/06/13 09:03:20;;;;;;;6.20;5.03;;;21.10;92.30;;;;;;5033188;28;20286;-42
2021/06/13 09:05:48;;;;;;;5.93;4.43;;;21.10;92.10;;;;;;5032226;28;20213;-45
2021/06/13 09:08:17;;;;;;;5.75;4.28;;;21.10;91.90;;;;;;5032045;28;20209;-44
2021/06/13 09:10:47;;;;;;;8.45;4.47;;;21.10;91.70;;;;;;5032727;28;20254;-45
2021/06/13 09:13:17;;;;;;;7.47;3.85;;;21.10;91.60;;;;;;5032664;28;20406;-47
2021/06/13 09:15:48;;;;;;;4.28;3.80;;;21.10;91.50;;;;;;5032414;28;20248;-47
2021/06/13 09:18:32;;;;;;;4.18;3.53;;;21.20;91.30;;;;;;5032739;28;20288;-43
2021/06/13 09:21:01;;;;;;;4.95;3.90;;;21.20;90.70;;;;;;5032572;28;20240;-42
2021/06/13 09:23:30;;;;;;;5.55;4.30;;;21.10;90.80;;;;;;5032566;28;20214;-44
2021/06/13 09:26:00;;;;;;;5.78;3.95;;;21.10;90.70;;;;;;5032380;28;20358;-44
2021/06/13 09:28:31;;;;;;;5.82;4.07;;;21.10;90.80;;;;;;5032070;28;20303;-44
2021/06/13 09:30:59;;;;;;;4.22;3.83;;;21.20;90.70;;;;;;5032934;28;20216;-44
2021/06/13 09:33:31;;;;;;;4.20;3.80;;;21.20;90.50;;;;;;5032627;28;20223;-44
2021/06/13 09:36:05;;;;;;;5.20;4.47;;;21.10;90.40;;;;;;5032471;28;20220;-46
2021/06/13 09:38:36;;;;;;;6.68;4.75;;;21.10;90.30;;;;;;5032504;28;20240;-44
2021/06/13 09:41:07;;;;;;;5.13;3.78;;;21.10;90.40;;;;;;5032118;28;20219;-45
2021/06/13 09:43:39;;;;;;;9.13;3.97;;;21.10;90.30;;;;;;5032414;28;20455;-42
2021/06/13 09:46:10;;;;;;;4.32;3.30;;;21.20;89.60;;;;;;5032115;28;20308;-42
2021/06/13 09:48:40;;;;;;;3.75;3.28;;;21.20;89.40;;;;;;5031840;28;20216;-43
2021/06/13 09:51:10;;;;;;;7.53;4.13;;;21.20;88.90;;;;;;5031667;28;20220;-42
2021/06/13 09:53:43;;;;;;;6.95;3.60;;;21.40;88.60;;;;;;5031630;28;20236;-46
2021/06/13 09:56:21;;;;;;;5.25;3.00;;;21.40;87.60;;;;;;5032082;28;20250;-43
2021/06/13 09:59:11;;;;;;;4.05;3.22;;;21.50;86.90;;;;;;5031640;28;20307;-42
2021/06/13 10:01:40;;;;;;;7.70;3.13;;;21.60;85.90;;;;;;5031566;28;20648;-43
2021/06/13 10:04:26;;;;;;;4.95;3.47;;;21.60;86.10;;;;;;5031958;28;20251;-47
2021/06/13 10:06:56;;;;;;;5.57;3.20;;;21.80;85.30;;;;;;5031832;28;20209;-44
2021/06/13 10:09:35;;;;;;;3.75;3.10;;;21.90;85.40;;;;;;5031543;28;20235;-47
2021/06/13 10:12:06;;;;;;;5.95;3.80;;;21.90;84.60;;;;;;5035122;28;20699;-43
2021/06/13 10:14:38;;;;;;;2.75;2.40;;;21.90;84.30;;;;;;5035578;28;20216;-44
2021/06/13 10:17:07;;;;;;;5.53;3.30;;;21.80;84.40;;;;;;5031749;28;20251;-45
2021/06/13 10:19:39;;;;;;;3.83;3.42;;;21.90;84.10;;;;;;5031627;28;20212;-42
2021/06/13 10:22:08;;;;;;;3.53;3.22;;;21.80;83.60;;;;;;5031542;28;20332;-43
2021/06/13 10:24:38;;;;;;;6.88;3.13;;;21.90;83.40;;;;;;5031135;28;20220;-46
2021/06/13 10:27:08;;;;;;;3.10;2.63;;;21.90;82.60;;;;;;5031485;28;20307;-41
2021/06/13 10:29:39;;;;;;;3.15;2.70;;;21.90;81.80;;;;;;5031646;28;20228;-42
2021/06/13 10:32:09;;;;;;;5.43;3.67;;;22.00;81.50;;;;;;5031899;28;20216;-41
2021/06/13 10:34:39;;;;;;;3.22;2.92;;;21.90;81.10;;;;;;5031564;28;20247;-42
2021/06/13 10:37:08;;;;;;;5.45;3.50;;;21.90;81.30;;;;;;5031704;28;20284;-45
2021/06/13 10:39:39;;;;;;;5.13;3.33;;;21.90;81.30;;;;;;5031813;28;20676;-44
2021/06/13 10:42:11;;;;;;;4.95;3.25;;;21.90;81.10;;;;;;5031610;28;20596;-43
2021/06/13 10:44:45;;;;;;;4.07;3.67;;;21.90;81.30;;;;;;5031861;28;20212;-44
2021/06/13 10:47:16;;;;;;;3.35;2.88;;;21.90;81.70;;;;;;5031773;28;20209;-42
2021/06/13 10:49:48;;;;;;;4.07;2.95;;;22.00;81.10;;;;;;5031588;28;20229;-42
2021/06/13 10:52:19;;;;;;;5.03;2.40;;;21.90;80.60;;;;;;5031562;28;20251;-43
2021/06/13 10:54:57;;;;;;;3.47;2.78;;;22.00;79.10;;;;;;5031837;28;20247;-45
2021/06/13 10:57:39;;;;;;;8.27;3.22;;;22.10;77.60;;;;;;5031493;28;20209;-47
2021/06/13 11:00:26;;;;;;;9.77;2.92;;;22.20;76.30;;;;;;5031291;28;20251;-47
2021/06/13 11:03:00;;;;;;;3.10;2.80;;;22.20;77.40;;;;;;5031392;28;20674;-44
2021/06/13 11:05:44;;;;;;;4.18;3.25;;;22.30;77.70;;;;;;5031271;28;20311;-43
2021/06/13 11:08:13;;;;;;;5.63;3.17;;;22.30;76.90;;;;;;5031279;28;20212;-43
2021/06/13 11:10:41;;;;;;;3.67;2.67;;;22.30;77.10;;;;;;5032441;28;20271;-43
2021/06/13 11:13:13;;;;;;;5.65;2.95;;;22.30;76.50;;;;;;5035447;28;20248;-42
2021/06/13 11:15:49;;;;;;;5.05;3.22;;;22.30;76.50;;;;;;5035139;28;20304;-42
2021/06/13 11:18:23;;;;;;;3.63;2.75;;;22.40;75.70;;;;;;5034975;28;20672;-43
2021/06/13 11:21:02;;;;;;;3.50;3.20;;;22.50;75.70;;;;;;5035120;28;20301;-44
2021/06/13 11:23:47;;;;;;;5.82;2.78;;;22.60;75.80;;;;;;5035248;28;20295;-41
2021/06/13 11:26:37;;;;;;;6.05;2.22;;;22.60;75.70;;;;;;5035285;28;20213;-45
2021/06/13 11:29:10;;;;;;;2.90;2.38;;;22.60;74.30;;;;;;5035158;28;20212;-45
2021/06/13 11:31:47;;;;;;;3.47;2.15;;;22.70;74.20;;;;;;5034802;28;20319;-47
2021/06/13 11:34:15;;;;;;;5.85;2.92;;;22.70;71.00;;;;;;5034995;28;20223;-45
2021/06/13 11:36:44;;;;;;;4.68;2.80;;;22.60;71.90;;;;;;5035118;28;20307;-45
2021/06/13 11:39:32;;;;;;;4.47;1.90;;;22.60;71.80;;;;;;5035700;28;20208;-43
2021/06/13 11:42:15;;;;;;;4.40;2.80;;;22.60;71.50;;;;;;5034906;28;20675;-42
2021/06/13 11:44:47;;;;;;;2.55;2.30;;;22.70;70.40;;;;;;5034751;28;20288;-43
2021/06/13 11:47:40;;;;;;;2.97;2.28;;;22.80;70.80;;;;;;5035292;28;20295;-45
2021/06/13 11:50:13;;;;;;;2.53;2.33;;;22.90;70.20;;;;;;5034918;28;20232;-44
2021/06/13 11:52:55;;;;;;;2.50;1.98;;;23.00;68.40;;;;;;5034888;28;20219;-44
2021/06/13 11:55:48;;;;;;;3.28;2.13;;;23.00;67.60;;;;;;5034979;28;20304;-43
2021/06/13 11:58:16;;;;;;;2.05;1.92;;;23.00;66.70;;;;;;5029765;28;20740;-46
2021/06/13 12:00:44;;;;;;;4.07;2.42;;;23.00;67.70;;;;;;5034691;28;20289;-42
2021/06/13 12:03:13;;;;;;;2.55;2.35;;;23.00;67.40;;;;;;5034631;28;20447;-44
2021/06/13 12:05:41;;;;;;;2.08;1.88;;;23.00;67.50;;;;;;5034692;28;20213;-44
2021/06/13 12:08:11;;;;;;;2.78;1.98;;;23.10;67.40;;;;;;5034411;28;20236;-46
2021/06/13 12:10:46;;;;;;;4.35;2.20;;;23.20;66.10;;;;;;5034285;28;20279;-44
2021/06/13 12:13:18;;;;;;;2.50;1.85;;;23.30;64.30;;;;;;5034529;28;20248;-44
2021/06/13 12:15:46;;;;;;;2.95;2.17;;;23.30;63.90;;;;;;5034507;28;20277;-44
2021/06/13 12:18:16;;;;;;;2.22;2.03;;;23.30;64.50;;;;;;5034303;28;20231;-42
2021/06/13 12:20:44;;;;;;;4.80;1.98;;;23.30;64.80;;;;;;5034153;28;20278;-43
2021/06/13 12:23:17;;;;;;;2.83;2.30;;;23.40;64.60;;;;;;5034292;28;20213;-45
2021/06/13 12:28:35;;;;;;;4.72;2.35;;;23.40;64.10;;;;;;5034201;28;20224;-45
2021/06/13 12:31:03;;;;;;;3.60;1.80;;;23.40;63.70;;;;;;5033855;28;20278;-44
2021/06/13 12:33:36;;;;;;;2.55;1.90;;;23.30;63.10;;;;;;5033918;28;20227;-44
2021/06/13 12:36:07;;;;;;;3.42;1.92;;;23.40;61.60;;;;;;5033896;28;20647;-46
2021/06/13 12:38:37;;;;;;;3.53;2.15;;;23.40;61.80;;;;;;5033542;28;20275;-46
2021/06/13 12:41:07;;;;;;;3.33;1.90;;;23.60;61.90;;;;;;5033613;28;20211;-46
2021/06/13 12:43:37;;;;;;;3.10;2.17;;;23.60;62.30;;;;;;5033585;28;20803;-46
2021/06/13 12:46:06;;;;;;;3.53;1.95;;;23.70;62.50;;;;;;5033413;28;20296;-46
2021/06/13 12:48:35;;;;;;;2.67;2.10;;;23.70;62.70;;;;;;5033615;28;20224;-47
2021/06/13 12:51:03;;;;;;;4.53;2.13;;;23.70;62.40;;;;;;5033644;28;20452;-44
2021/06/13 12:53:33;;;;;;;2.50;2.10;;;23.70;62.30;;;;;;5033655;28;20208;-46
2021/06/13 12:56:05;;;;;;;3.83;2.85;;;23.80;62.20;;;;;;5033461;28;20300;-44
2021/06/13 12:58:40;;;;;;;4.55;2.25;;;23.80;62.10;;;;;;5033560;28;20255;-45
2021/06/13 13:01:09;;;;;;;2.45;1.92;;;23.80;62.00;;;;;;5033219;28;20295;-46
2021/06/13 13:03:42;;;;;;;2.28;2.00;;;23.90;61.50;;;;;;5033368;28;20213;-49